Rhinelander Oneida County Airport
KRHI : now visible

Aeroporto :











RITROVATECI SU...

 
LOGIN :

Iscrizione | Disclaimer

   EN    FR    IT 

 









Sommario :    VFR   VFR Marginale   IFR   IFR Intensivo   IFR Molto Intensivo
Visibilità : 
Base nubi : 
>= 8 km
>= 3000ft
5 / 8 km
1000 / 3000 ft
1500m / 5 km
500 / 1000 ft
800 / 1500m
200 / 500 ft
< 800m
< 200 ft
Simboli :   Temporali  Nebbia  Neve Forte  Precipitazioni Forti  Vento > 20 kt






- Altitudine del aeroporto : 1624 ft
- Codice IATA : RHI


KRHI - Rhinelander Oneida County

ULTIMO METAR :
  • 201153Z AUTO 26005KT 10SM CLR M28/M30 A3055 RMK AO2 SLP400 70002 T12831300 11206 21283 51006

METARs OBSOLETI :
  • 201053Z AUTO 28005KT 10SM CLR M23/M26 A3055 RMK AO2 SLP394 T12331261
  • 200953Z AUTO 30005KT 10SM CLR M22/M26 A3054 RMK AO2 SLP390 T12171256
  • 200853Z AUTO 31005KT 10SM CLR M21/M26 A3053 RMK AO2 SLP386 T12111256 55000

TAF KRHI
Valido dal 20 a 12 ore il 21 a 12 ore UTC


201131Z 2012/2112 28005KT P6SM SKC
FM201800 25010G16KT P6SM SKC
FM210000 24009G15KT P6SM SKC WS012/28040KT



MetMap, La meteo Aeronautica in un colpo d'occhio ! - Copyright ORBIFLY Dicembre 2007 - Disclaimer

ORBIFLY MET'MAP TEAM :

Programmazione e sviluppo : Alexandra Zaïnal
Concezione : Baudouin d'Aumeries
Aiuto per la programmazione : Marc-Olivier Méhu
Supporto tecnico e logistico : Manuel Goepfert
Aiuto per la traduzione : Arnaldo La Scala

Contatto : metmap@orbifly.com




FONTI E CREDITI :

   NOAA       Earth
Advisory